Time;durP1;ratioP1;P1;durP2;ratioP2;P2;SDS_P1;SDS_P2;PMS_P1;PMS_P2;Temp;Humidity;BMP_temperature;BMP_pressure;BME280_temperature;BME280_humidity;BME280_pressure;Samples;Min_cycle;Max_cycle;Signal;HPM_P1;HPM_P2
2023/12/05 00:01:22;;;;;;;2.6;2.1;;;;;;;1.67;94.51172;928.2932;;;;
2023/12/05 00:04:02;;;;;;;3.2;2;;;;;;;1.67;95.05957;928.33;;;;
2023/12/05 00:06:30;;;;;;;3.5;2.5;;;;;;;1.68;95.36328;928.353;;;;
2023/12/05 00:08:54;;;;;;;4.9;2.7;;;;;;;1.7;95.47949;928.2813;;;;
2023/12/05 00:11:20;;;;;;;4.2;2.5;;;;;;;1.62;95.74219;928.3427;;;;
2023/12/05 00:13:54;;;;;;;5.8;2.9;;;;;;;1.62;95.8877;928.3624;;;;
2023/12/05 00:16:34;;;;;;;3.9;2.6;;;;;;;1.64;96.10449;928.3567;;;;
2023/12/05 00:18:59;;;;;;;4;2.7;;;;;;;1.64;96.26074;928.3127;;;;
2023/12/05 00:21:31;;;;;;;5.3;3.1;;;;;;;1.67;96.16895;928.3419;;;;
2023/12/05 00:24:02;;;;;;;4.6;2.8;;;;;;;1.84;95.04199;928.2891;;;;
2023/12/05 00:26:32;;;;;;;4.3;2.3;;;;;;;1.84;94.78613;928.2288;;;;
2023/12/05 00:29:04;;;;;;;3.7;2.1;;;;;;;1.86;94.92285;928.1837;;;;
2023/12/05 00:31:38;;;;;;;4.3;2.8;;;;;;;1.83;94.82715;928.2001;;;;
2023/12/05 00:34:03;;;;;;;4.3;2.3;;;;;;;1.9;94.63086;928.1439;;;;
2023/12/05 00:36:40;;;;;;;4.1;2.2;;;;;;;1.87;94.75879;928.1982;;;;
2023/12/05 00:39:05;;;;;;;3;2.2;;;;;;;1.76;95.59375;928.1604;;;;
2023/12/05 00:41:30;;;;;;;2.6;1.8;;;;;;;1.75;95.87207;928.157;;;;
2023/12/05 00:43:58;;;;;;;3.2;1.6;;;;;;;1.73;96.18066;928.1566;;;;
2023/12/05 00:46:23;;;;;;;3;1.8;;;;;;;1.89;95.44727;928.0605;;;;
2023/12/05 00:48:51;;;;;;;2.7;1.4;;;;;;;1.91;95.74023;928.2037;;;;
2023/12/05 00:51:16;;;;;;;1.9;1.5;;;;;;;1.9;95.62695;928.2247;;;;
2023/12/05 00:53:45;;;;;;;2;1.7;;;;;;;1.87;96.34766;928.1605;;;;
2023/12/05 00:56:11;;;;;;;1.7;1.5;;;;;;;1.84;96.46484;928.3708;;;;
2023/12/05 00:58:38;;;;;;;2.9;2.6;;;;;;;1.93;96.22363;928.3337;;;;
2023/12/05 01:01:09;;;;;;;2.2;1.8;;;;;;;1.93;95.60156;928.4022;;;;
2023/12/05 01:03:36;;;;;;;1.7;1.6;;;;;;;1.85;96.31934;928.488;;;;
2023/12/05 01:06:01;;;;;;;2.9;1.7;;;;;;;1.81;96.68066;928.4351;;;;
2023/12/05 01:08:30;;;;;;;2.6;1.8;;;;;;;1.78;96.77441;928.5518;;;;
2023/12/05 01:10:57;;;;;;;3.1;2;;;;;;;1.79;96.66504;928.5615;;;;
2023/12/05 01:13:24;;;;;;;4.3;2.4;;;;;;;1.77;96.63867;928.5821;;;;
2023/12/05 01:15:52;;;;;;;6.2;3;;;;;;;1.82;96.91699;928.6167;;;;
2023/12/05 01:18:17;;;;;;;5.5;2.8;;;;;;;1.89;96.6543;928.6052;;;;
2023/12/05 01:20:42;;;;;;;3.2;2.3;;;;;;;1.8;96.98926;928.5625;;;;
2023/12/05 01:23:07;;;;;;;5.1;3.1;;;;;;;1.82;96.93945;928.6873;;;;
2023/12/05 01:25:32;;;;;;;4.5;2.9;;;;;;;1.91;96.23047;928.6973;;;;
2023/12/05 01:28:02;;;;;;;4;3;;;;;;;1.87;96.23633;928.7169;;;;
2023/12/05 01:30:27;;;;;;;5.4;4.6;;;;;;;1.77;96.54883;928.7258;;;;
2023/12/05 01:32:59;;;;;;;5.2;4.2;;;;;;;1.92;96.14551;928.6602;;;;
2023/12/05 01:35:29;;;;;;;5.1;4.5;;;;;;;1.9;96.26465;928.6799;;;;
2023/12/05 01:38:00;;;;;;;5;4.1;;;;;;;1.81;96.49023;928.6494;;;;
2023/12/05 01:40:30;;;;;;;2.9;2.6;;;;;;;1.9;96.24219;928.7161;;;;
2023/12/05 01:42:55;;;;;;;2.7;2.2;;;;;;;1.93;96.13672;928.6494;;;;
2023/12/05 01:45:25;;;;;;;2.4;1.9;;;;;;;2.06;95.18164;928.697;;;;
2023/12/05 01:47:53;;;;;;;2.7;1.9;;;;;;;1.98;95.47559;928.7205;;;;
2023/12/05 01:50:18;;;;;;;2.9;1.8;;;;;;;1.93;96.08008;928.6242;;;;
2023/12/05 01:52:47;;;;;;;4.3;3.4;;;;;;;2.06;95.91895;928.5838;;;;
2023/12/05 01:55:12;;;;;;;4.5;4.1;;;;;;;1.97;95.95605;928.5516;;;;
2023/12/05 01:57:42;;;;;;;3.8;3.4;;;;;;;1.88;96.10352;928.4612;;;;
2023/12/05 02:00:17;;;;;;;2.3;2;;;;;;;1.9;96.52148;928.491;;;;
2023/12/05 02:02:45;;;;;;;2.6;1.9;;;;;;;1.9;96.63379;928.5731;;;;
2023/12/05 02:05:10;;;;;;;3.9;1.8;;;;;;;1.88;96.96484;928.5909;;;;
2023/12/05 02:07:38;;;;;;;2.5;2;;;;;;;1.9;97.18164;928.6202;;;;
2023/12/05 02:10:03;;;;;;;3.2;1.8;;;;;;;2.04;96.76563;928.6107;;;;
2023/12/05 02:12:37;;;;;;;2.9;1.8;;;;;;;2.03;96.125;928.6766;;;;
2023/12/05 02:15:07;;;;;;;3.1;2.7;;;;;;;1.94;96.12695;928.6096;;;;
2023/12/05 02:17:40;;;;;;;3.5;2.4;;;;;;;1.88;96.3252;928.5962;;;;
2023/12/05 02:20:08;;;;;;;2.7;2.1;;;;;;;1.81;96.62402;928.6886;;;;
2023/12/05 02:22:39;;;;;;;3.1;1.9;;;;;;;1.86;96.44629;928.6013;;;;
2023/12/05 02:25:05;;;;;;;2.8;2;;;;;;;1.81;96.64648;928.5623;;;;
2023/12/05 02:27:29;;;;;;;3.6;1.8;;;;;;;1.75;96.93652;928.5597;;;;
2023/12/05 02:29:57;;;;;;;2.9;1.7;;;;;;;1.75;96.94531;928.5094;;;;
2023/12/05 02:32:22;;;;;;;2.6;1.9;;;;;;;1.71;97.11621;928.4345;;;;
2023/12/05 02:34:47;;;;;;;3.7;2.1;;;;;;;1.76;97.1709;928.4705;;;;
2023/12/05 02:37:12;;;;;;;4.3;1.9;;;;;;;1.78;97.19824;928.485;;;;
2023/12/05 02:39:38;;;;;;;2.7;1.8;;;;;;;1.8;96.88867;928.48;;;;
2023/12/05 02:42:02;;;;;;;3.3;1.9;;;;;;;1.73;97.19824;928.512;;;;
2023/12/05 02:44:28;;;;;;;1.9;1.7;;;;;;;1.69;97.21289;928.3478;;;;
2023/12/05 02:46:53;;;;;;;2.3;2;;;;;;;1.67;97.53125;928.5034;;;;
2023/12/05 02:49:18;;;;;;;2.5;2;;;;;;;1.78;97.02051;928.5801;;;;
2023/12/05 02:51:47;;;;;;;3.4;2;;;;;;;1.74;96.68652;928.6629;;;;
2023/12/05 02:54:12;;;;;;;2.2;1.6;;;;;;;1.68;97.17676;928.6803;;;;
2023/12/05 02:56:40;;;;;;;2.7;2.5;;;;;;;1.71;97.30664;928.6331;;;;
2023/12/05 02:59:05;;;;;;;5;2.6;;;;;;;1.76;96.82422;928.5692;;;;
2023/12/05 03:01:31;;;;;;;3.6;1.9;;;;;;;1.72;97.01758;928.5667;;;;
2023/12/05 03:03:56;;;;;;;2.1;1.6;;;;;;;1.76;97.1377;928.5449;;;;
2023/12/05 03:06:24;;;;;;;3.8;1.9;;;;;;;1.74;97.23438;928.3992;;;;
2023/12/05 03:08:48;;;;;;;2.5;1.7;;;;;;;1.69;97.61523;928.5134;;;;
2023/12/05 03:11:13;;;;;;;2;1.7;;;;;;;1.68;97.66895;928.3908;;;;
2023/12/05 03:13:38;;;;;;;2.5;2;;;;;;;1.76;97.23828;928.4908;;;;
2023/12/05 03:16:10;;;;;;;2.8;1.9;;;;;;;1.67;97.54199;928.4902;;;;
2023/12/05 03:18:35;;;;;;;1.9;1.6;;;;;;;1.71;97.67383;928.5388;;;;
2023/12/05 03:21:03;;;;;;;3.2;2.9;;;;;;;1.76;97.06152;928.4713;;;;
2023/12/05 03:23:28;;;;;;;2.4;2.2;;;;;;;1.67;97.46582;928.4581;;;;
2023/12/05 03:25:58;;;;;;;2.3;1.8;;;;;;;1.66;97.73047;928.478;;;;
2023/12/05 03:28:27;;;;;;;2.2;1.9;;;;;;;1.65;97.76172;928.5012;;;;
2023/12/05 03:30:57;;;;;;;2.3;1.8;;;;;;;1.82;96.99512;928.4895;;;;
2023/12/05 03:33:22;;;;;;;2.2;1.8;;;;;;;1.8;96.8457;928.5433;;;;
2023/12/05 03:35:52;;;;;;;2.5;2.2;;;;;;;1.74;97.25684;928.5765;;;;
2023/12/05 03:38:24;;;;;;;2.5;2.2;;;;;;;1.77;96.95215;928.5837;;;;
2023/12/05 03:40:49;;;;;;;2.9;2.1;;;;;;;1.73;97.16504;928.5967;;;;
2023/12/05 03:43:16;;;;;;;4.2;2.3;;;;;;;1.72;97.36426;928.5047;;;;
2023/12/05 03:45:41;;;;;;;2.6;2;;;;;;;1.74;97.33691;928.5052;;;;
2023/12/05 03:48:11;;;;;;;3;2;;;;;;;1.82;96.93945;928.5525;;;;
2023/12/05 03:50:37;;;;;;;4.9;3.7;;;;;;;1.83;96.66211;928.6091;;;;
2023/12/05 03:53:03;;;;;;;3.7;3.2;;;;;;;1.74;97.03516;928.7156;;;;
2023/12/05 03:55:35;;;;;;;2.8;2.5;;;;;;;1.75;96.8916;928.6838;;;;
2023/12/05 03:58:02;;;;;;;3.7;2.8;;;;;;;1.8;96.65625;928.6666;;;;
2023/12/05 04:02:29;;;;;;;4.5;3.7;;;;;;;1.86;96.08887;928.7056;;;;
2023/12/05 04:04:54;;;;;;;3.8;3.4;;;;;;;1.78;96.26953;928.6766;;;;
2023/12/05 04:07:25;;;;;;;2.4;2.2;;;;;;;1.77;96.50195;928.6378;;;;
2023/12/05 04:09:53;;;;;;;2.4;1.9;;;;;;;1.72;96.86133;928.671;;;;
2023/12/05 04:12:18;;;;;;;2.1;1.6;;;;;;;1.68;97.24219;928.6973;;;;
2023/12/05 04:14:46;;;;;;;2.8;1.7;;;;;;;1.65;97.30273;928.7092;;;;
2023/12/05 04:17:11;;;;;;;2.2;1.8;;;;;;;1.66;97.1709;928.6891;;;;
2023/12/05 04:19:40;;;;;;;3.2;2.3;;;;;;;1.68;97.15234;928.7601;;;;
2023/12/05 04:22:05;;;;;;;3.6;2.6;;;;;;;1.71;97.04688;928.7413;;;;
2023/12/05 04:24:30;;;;;;;4.8;2.9;;;;;;;1.73;96.9502;928.7967;;;;
2023/12/05 04:26:57;;;;;;;4.8;2.9;;;;;;;1.73;96.80762;928.774;;;;
2023/12/05 04:29:22;;;;;;;5.1;2.9;;;;;;;1.8;96.54395;928.7654;;;;
2023/12/05 04:31:48;;;;;;;3.8;2.3;;;;;;;1.78;96.61621;928.7291;;;;
2023/12/05 04:34:13;;;;;;;5.2;2.8;;;;;;;1.75;96.62109;928.7173;;;;
2023/12/05 04:36:40;;;;;;;3;2.3;;;;;;;1.8;96.20605;928.608;;;;
2023/12/05 04:39:07;;;;;;;3.4;2.3;;;;;;;1.78;96.18164;928.6868;;;;
2023/12/05 04:41:35;;;;;;;4.5;2.7;;;;;;;1.85;96.19629;928.7109;;;;
2023/12/05 04:43:58;;;;;;;4.1;2.4;;;;;;;1.87;95.7998;928.7922;;;;
2023/12/05 04:46:24;;;;;;;5.4;2.4;;;;;;;1.84;95.83789;928.8111;;;;
2023/12/05 04:48:50;;;;;;;4;2.5;;;;;;;1.75;96.3418;928.7448;;;;
2023/12/05 04:51:18;;;;;;;4.6;3;;;;;;;1.74;96.63184;928.7949;;;;
2023/12/05 04:53:43;;;;;;;3.5;2.7;;;;;;;1.81;96.20996;928.7899;;;;
2023/12/05 04:56:08;;;;;;;3.8;2.7;;;;;;;1.76;96.44629;928.8206;;;;
2023/12/05 04:58:33;;;;;;;3.1;2.5;;;;;;;1.74;96.56543;928.8356;;;;
2023/12/05 05:01:00;;;;;;;3.6;2.5;;;;;;;1.68;96.74121;928.8804;;;;
2023/12/05 05:03:25;;;;;;;4.1;2.7;;;;;;;1.69;96.93359;928.8892;;;;
2023/12/05 05:05:53;;;;;;;2.5;2;;;;;;;1.8;96.56641;928.7363;;;;
2023/12/05 05:08:18;;;;;;;3.3;2.4;;;;;;;1.8;96.41016;928.7473;;;;
2023/12/05 05:10:45;;;;;;;4.8;2.8;;;;;;;1.79;96.58691;928.7813;;;;
2023/12/05 05:13:10;;;;;;;2.7;2;;;;;;;1.83;96.37305;928.8651;;;;
2023/12/05 05:15:40;;;;;;;3.4;1.7;;;;;;;1.8;96.23047;928.8439;;;;
2023/12/05 05:18:04;;;;;;;1.8;1.7;;;;;;;1.78;96.27148;928.7017;;;;
2023/12/05 05:20:33;;;;;;;1.8;1.6;;;;;;;1.94;95.61426;928.842;;;;
2023/12/05 05:23:01;;;;;;;1.6;1.5;;;;;;;1.78;95.93359;928.7738;;;;
2023/12/05 05:25:32;;;;;;;3.8;1.8;;;;;;;1.75;96.33008;928.9324;;;;
2023/12/05 05:27:59;;;;;;;2.5;2;;;;;;;1.76;96.29004;928.884;;;;
2023/12/05 05:30:24;;;;;;;2.5;2.3;;;;;;;1.67;96.52637;928.7954;;;;
2023/12/05 05:32:52;;;;;;;3.7;2.1;;;;;;;1.81;95.94434;928.9995;;;;
2023/12/05 05:35:19;;;;;;;4.1;2.1;;;;;;;1.75;96.16211;928.8867;;;;
2023/12/05 05:37:45;;;;;;;2.2;2;;;;;;;1.77;95.9541;928.8496;;;;
2023/12/05 05:40:21;;;;;;;3.7;2.5;;;;;;;1.74;95.9502;928.8702;;;;
2023/12/05 05:42:38;;;;;;;4.2;2.5;;;;;;;1.68;96.30469;928.8161;;;;
2023/12/05 05:45:12;;;;;;;6.3;4.3;;;;;;;1.66;96.3877;928.8295;;;;
2023/12/05 05:47:43;;;;;;;9;5.5;;;;;;;1.65;96.38574;928.8505;;;;
2023/12/05 05:50:08;;;;;;;9.7;4.9;;;;;;;1.72;96.14551;928.8367;;;;
2023/12/05 05:52:37;;;;;;;5.5;3.9;;;;;;;1.72;96.14551;928.8215;;;;
2023/12/05 05:55:05;;;;;;;7.5;4.6;;;;;;;1.7;96.26367;928.774;;;;
2023/12/05 05:57:28;;;;;;;10.4;5.8;;;;;;;1.68;96.29395;928.8247;;;;
2023/12/05 05:59:53;;;;;;;9.7;5.9;;;;;;;1.62;96.52539;928.8488;;;;
2023/12/05 06:02:21;;;;;;;9.1;5.8;;;;;;;1.66;96.44629;928.7637;;;;
2023/12/05 06:04:48;;;;;;;9.3;5.6;;;;;;;1.76;96.13086;928.7536;;;;
2023/12/05 06:07:13;;;;;;;8;4.8;;;;;;;1.78;95.86621;928.8633;;;;
2023/12/05 06:09:40;;;;;;;8;4.9;;;;;;;1.82;95.66406;928.8695;;;;
2023/12/05 06:12:08;;;;;;;8.1;4.8;;;;;;;1.82;95.68652;928.8459;;;;
2023/12/05 06:14:37;;;;;;;5.2;3.7;;;;;;;1.82;95.69824;928.8184;;;;
2023/12/05 06:17:02;;;;;;;4.1;2.8;;;;;;;1.92;94.74707;928.8625;;;;
2023/12/05 06:19:33;;;;;;;5;3.6;;;;;;;1.85;94.86523;928.8834;;;;
2023/12/05 06:21:59;;;;;;;4.6;3.3;;;;;;;1.9;94.49609;928.8739;;;;
2023/12/05 06:24:28;;;;;;;4.2;3.1;;;;;;;1.9;94.56348;928.8628;;;;
2023/12/05 06:26:53;;;;;;;4.9;3.4;;;;;;;1.88;94.66992;928.8419;;;;
2023/12/05 06:29:21;;;;;;;4;2.9;;;;;;;1.74;94.91895;928.8456;;;;
2023/12/05 06:31:46;;;;;;;4.1;2.6;;;;;;;1.78;94.69434;928.8563;;;;
2023/12/05 06:34:11;;;;;;;2.8;2.3;;;;;;;1.86;94.12891;928.8028;;;;
2023/12/05 06:36:42;;;;;;;3.5;2.2;;;;;;;1.81;93.82715;928.8148;;;;
2023/12/05 06:39:15;;;;;;;3.3;1.9;;;;;;;1.88;93.54102;928.8035;;;;
2023/12/05 06:41:40;;;;;;;2.2;1.8;;;;;;;1.83;93.11719;928.8337;;;;
2023/12/05 06:44:10;;;;;;;3;1.9;;;;;;;1.76;93.46875;928.8643;;;;
2023/12/05 06:46:35;;;;;;;4.4;1.9;;;;;;;1.77;93.60742;928.8686;;;;
2023/12/05 06:49:03;;;;;;;4;2.1;;;;;;;1.91;93.04395;928.8356;;;;
2023/12/05 06:51:28;;;;;;;2.2;1.8;;;;;;;1.76;92.96582;928.8917;;;;
2023/12/05 06:53:54;;;;;;;3.2;2.3;;;;;;;1.79;93.18359;928.8831;;;;
2023/12/05 06:56:19;;;;;;;2.1;1.9;;;;;;;1.74;93.25391;928.8749;;;;
2023/12/05 06:58:46;;;;;;;3.7;2;;;;;;;1.93;92.75684;928.8589;;;;
2023/12/05 07:01:23;;;;;;;6.9;2.4;;;;;;;1.97;92.20703;928.8552;;;;
2023/12/05 07:03:52;;;;;;;4.9;2.4;;;;;;;2.01;92.4834;928.9319;;;;
2023/12/05 07:06:18;;;;;;;4.8;3.3;;;;;;;2.05;92.34766;928.973;;;;
2023/12/05 07:08:51;;;;;;;4.2;2.9;;;;;;;1.99;92.65918;928.9155;;;;
2023/12/05 07:11:23;;;;;;;6.6;2.9;;;;;;;1.94;93.11719;929.002;;;;
2023/12/05 07:13:53;;;;;;;2.8;2.4;;;;;;;2.03;92.59961;929.0934;;;;
2023/12/05 07:16:23;;;;;;;3.2;2.4;;;;;;;1.88;93.28418;929.163;;;;
2023/12/05 07:18:49;;;;;;;3.9;2.7;;;;;;;1.86;93.60449;929.2283;;;;
2023/12/05 07:21:16;;;;;;;7;4.1;;;;;;;1.89;93.6123;929.2285;;;;
2023/12/05 07:23:41;;;;;;;8.9;5.4;;;;;;;2.04;92.72656;929.2288;;;;
2023/12/05 07:26:10;;;;;;;13;5.6;;;;;;;1.99;93.2627;929.3447;;;;
2023/12/05 07:28:35;;;;;;;11.2;5.9;;;;;;;2.02;92.91309;929.3649;;;;
2023/12/05 07:31:02;;;;;;;9.6;6.4;;;;;;;1.97;93.0127;929.3829;;;;
2023/12/05 07:33:27;;;;;;;10.2;6.5;;;;;;;1.97;93.11328;929.4157;;;;
2023/12/05 07:35:57;;;;;;;12.3;6.3;;;;;;;2.11;92.91992;929.4394;;;;
2023/12/05 07:38:22;;;;;;;9.9;5.8;;;;;;;2.22;92.74219;929.4464;;;;
2023/12/05 07:40:50;;;;;;;7.4;4.9;;;;;;;2.24;92.16309;929.4665;;;;
2023/12/05 07:45:36;;;;;;;12.5;7;;;;;;;2.19;91.72852;929.4642;;;;
2023/12/05 07:48:01;;;;;;;13.2;7.4;;;;;;;2.36;92.63672;929.4766;;;;
2023/12/05 07:50:26;;;;;;;12.6;7.2;;;;;;;2.92;92.15332;929.4597;;;;
2023/12/05 07:52:51;;;;;;;14.8;7.2;;;;;;;3.38;89.91992;929.47;;;;
2023/12/05 07:55:16;;;;;;;14.7;7.2;;;;;;;3.65;87.60645;929.4228;;;;
2023/12/05 07:57:45;;;;;;;19.7;10.2;;;;;;;4.1;86.41699;929.515;;;;
2023/12/05 08:00:16;;;;;;;25.2;14.7;;;;;;;4.73;83.99805;929.4886;;;;
2023/12/05 08:02:35;;;;;;;25.8;16.3;;;;;;;5.32;80.99023;929.4924;;;;
2023/12/05 08:05:04;;;;;;;20.1;12.2;;;;;;;5.77;78.17383;929.5007;;;;
2023/12/05 08:07:29;;;;;;;13.7;8.5;;;;;;;6.05;75.875;929.4893;;;;
2023/12/05 08:09:55;;;;;;;12.6;8;;;;;;;6.39;75.30078;929.5392;;;;
2023/12/05 08:12:23;;;;;;;7.3;5.4;;;;;;;6.77;73.66992;929.5586;;;;
2023/12/05 08:14:49;;;;;;;8.8;6.1;;;;;;;7.18;71.52051;929.5295;;;;
2023/12/05 08:17:15;;;;;;;7;5.2;;;;;;;7.42;71.44629;929.5247;;;;
2023/12/05 08:19:40;;;;;;;7;4.2;;;;;;;7.68;68.51855;929.4585;;;;
2023/12/05 08:22:06;;;;;;;5.5;4.1;;;;;;;7.71;68.54492;929.5602;;;;
2023/12/05 08:24:31;;;;;;;6.1;3.7;;;;;;;7.86;67.68457;929.4828;;;;
2023/12/05 08:26:58;;;;;;;6.1;4.2;;;;;;;7.97;67.08887;929.4667;;;;
2023/12/05 08:29:23;;;;;;;10.3;7;;;;;;;8.12;66.92969;929.5644;;;;
2023/12/05 08:31:49;;;;;;;12;8.5;;;;;;;8.36;65.33301;929.6167;;;;
2023/12/05 08:34:15;;;;;;;14.6;9.3;;;;;;;8.41;65.18066;929.6028;;;;
2023/12/05 08:36:44;;;;;;;18;9.7;;;;;;;8.48;64.91797;929.5388;;;;
2023/12/05 08:39:16;;;;;;;28.2;14.8;;;;;;;8.73;65.04688;929.5913;;;;
2023/12/05 08:41:43;;;;;;;15.1;9.1;;;;;;;8.73;63.64844;929.5159;;;;
2023/12/05 08:44:08;;;;;;;12.5;8.3;;;;;;;8.77;63.21191;929.5303;;;;
2023/12/05 08:46:37;;;;;;;10.4;6.7;;;;;;;8.6;63.57324;929.5106;;;;
2023/12/05 08:49:02;;;;;;;11.8;6.6;;;;;;;8.87;64.5459;929.5499;;;;
2023/12/05 08:51:27;;;;;;;11.9;7.8;;;;;;;9.17;62.42676;929.4955;;;;
2023/12/05 08:53:52;;;;;;;12.7;8.2;;;;;;;9.23;62.1748;929.4855;;;;
2023/12/05 08:56:18;;;;;;;12.6;7.4;;;;;;;9.24;62.03809;929.4434;;;;
2023/12/05 08:58:45;;;;;;;8.2;5.9;;;;;;;9.35;61.83887;929.4728;;;;
2023/12/05 09:01:10;;;;;;;8.1;5.3;;;;;;;9.65;61.58594;929.4548;;;;
2023/12/05 09:03:36;;;;;;;7.8;4.3;;;;;;;9.76;60.31445;929.4045;;;;
2023/12/05 09:06:01;;;;;;;5.3;3.9;;;;;;;9.87;60.07715;929.3354;;;;
2023/12/05 09:08:32;;;;;;;5.4;3.8;;;;;;;9.66;60.36914;929.4532;;;;
2023/12/05 09:11:01;;;;;;;10;4.9;;;;;;;9.32;60.90137;929.5212;;;;
2023/12/05 09:13:27;;;;;;;10.3;6.5;;;;;;;8.79;62.20215;929.5342;;;;
2023/12/05 09:15:55;;;;;;;11;7.4;;;;;;;8.32;64.22461;929.5972;;;;
2023/12/05 09:18:20;;;;;;;10.2;6.1;;;;;;;8.06;65.40039;929.6458;;;;
2023/12/05 09:20:50;;;;;;;7.6;5;;;;;;;8.11;65.0791;929.669;;;;
2023/12/05 09:23:18;;;;;;;6;4.4;;;;;;;8.44;64.37793;929.5934;;;;
2023/12/05 09:25:43;;;;;;;5.3;4.1;;;;;;;8.8;63.90918;929.6406;;;;
2023/12/05 09:28:13;;;;;;;4.3;3.5;;;;;;;8.74;63.10449;929.577;;;;
2023/12/05 09:30:38;;;;;;;4.2;2.8;;;;;;;8.69;63.3252;929.5976;;;;
2023/12/05 09:33:07;;;;;;;4.2;3.4;;;;;;;8.62;62.62109;929.5808;;;;
2023/12/05 09:35:32;;;;;;;5.5;4.5;;;;;;;8.09;64.42773;929.657;;;;
2023/12/05 09:38:02;;;;;;;9.7;5.5;;;;;;;7.59;65.97461;929.6558;;;;
2023/12/05 09:40:27;;;;;;;12;7.4;;;;;;;7.25;68.03125;929.5834;;;;
2023/12/05 09:42:53;;;;;;;9.5;6.7;;;;;;;7.19;69.06348;929.7014;;;;
2023/12/05 09:45:24;;;;;;;8.7;5.1;;;;;;;7.06;69.63184;929.6939;;;;
2023/12/05 09:47:51;;;;;;;7.7;4.3;;;;;;;6.66;69.4873;929.6929;;;;
2023/12/05 09:50:16;;;;;;;5.3;3.6;;;;;;;6.41;71.06348;929.7469;;;;
2023/12/05 09:52:47;;;;;;;5.5;3;;;;;;;6.35;71.96973;929.7578;;;;
2023/12/05 09:55:19;;;;;;;5;4.1;;;;;;;6.34;72.41895;929.8675;;;;
2023/12/05 09:57:49;;;;;;;6.7;4.2;;;;;;;6.34;72.71289;929.8683;;;;
2023/12/05 10:00:18;;;;;;;6.5;4.7;;;;;;;6.43;72.30078;929.8317;;;;
2023/12/05 10:02:46;;;;;;;7.4;5.1;;;;;;;6.16;73.12305;929.8303;;;;
2023/12/05 10:05:14;;;;;;;6.7;5.5;;;;;;;5.93;74.82422;929.8273;;;;
2023/12/05 10:07:44;;;;;;;5.9;4.5;;;;;;;5.97;74.86621;929.6839;;;;
2023/12/05 10:10:09;;;;;;;3.5;2.9;;;;;;;5.91;74.62793;929.7558;;;;
2023/12/05 10:12:38;;;;;;;3.4;2.8;;;;;;;5.8;75.42383;929.7586;;;;
2023/12/05 10:15:11;;;;;;;4.3;2.4;;;;;;;5.53;75.90625;929.7964;;;;
2023/12/05 10:17:45;;;;;;;4.9;2.6;;;;;;;5.52;76.39941;929.8144;;;;
2023/12/05 10:20:17;;;;;;;4.6;2.9;;;;;;;5.55;76.58691;929.7509;;;;
2023/12/05 10:22:47;;;;;;;6.1;4;;;;;;;5.46;77.29199;929.7906;;;;
2023/12/05 10:25:14;;;;;;;3.8;3;;;;;;;5.37;76.58789;929.7449;;;;
2023/12/05 10:27:38;;;;;;;4.4;2.8;;;;;;;5.48;77.4082;929.7436;;;;
2023/12/05 10:30:10;;;;;;;3.3;2.7;;;;;;;5.5;76.48633;929.6909;;;;
2023/12/05 10:32:36;;;;;;;4.5;3.3;;;;;;;5.6;76.09961;929.6639;;;;
2023/12/05 10:35:01;;;;;;;5.2;3.7;;;;;;;5.64;75.75586;929.653;;;;
2023/12/05 10:37:29;;;;;;;8;5.3;;;;;;;5.71;76.09668;929.6018;;;;
2023/12/05 10:39:54;;;;;;;9.7;5.8;;;;;;;5.64;76.48926;929.5961;;;;
2023/12/05 10:42:24;;;;;;;8.6;5.5;;;;;;;5.67;74.76758;929.5427;;;;
2023/12/05 10:44:49;;;;;;;5.8;3.9;;;;;;;5.64;76.10547;929.5463;;;;
2023/12/05 10:47:14;;;;;;;3.8;2.6;;;;;;;5.88;75.13281;929.4384;;;;
2023/12/05 10:49:44;;;;;;;4.9;3.5;;;;;;;5.87;75.53809;929.4367;;;;
2023/12/05 10:52:09;;;;;;;5.9;4;;;;;;;6.02;74.94238;929.413;;;;
2023/12/05 10:54:38;;;;;;;6.8;3.9;;;;;;;6.12;74.81445;929.332;;;;
2023/12/05 10:57:08;;;;;;;7.1;3.8;;;;;;;6.19;75.21094;929.3526;;;;
2023/12/05 10:59:28;;;;;;;7;4.3;;;;;;;6.17;75.60059;929.3198;;;;
2023/12/05 11:01:52;;;;;;;4.1;3.2;;;;;;;6.21;75.42773;929.2946;;;;
2023/12/05 11:04:21;;;;;;;5.7;3.4;;;;;;;6.1;75.78125;929.2639;;;;
2023/12/05 11:06:46;;;;;;;5.5;3.1;;;;;;;5.98;76.41406;929.217;;;;
2023/12/05 11:09:11;;;;;;;3.8;2.6;;;;;;;5.85;76.73047;929.269;;;;
2023/12/05 11:11:44;;;;;;;3.4;2.6;;;;;;;5.9;76.81934;929.3228;;;;
2023/12/05 11:14:08;;;;;;;4;2.8;;;;;;;5.94;76.71387;929.3091;;;;
2023/12/05 11:16:37;;;;;;;3.1;2.3;;;;;;;5.96;77.32715;929.3362;;;;
2023/12/05 11:19:00;;;;;;;3.5;2.1;;;;;;;6.05;77.58105;929.3076;;;;
2023/12/05 11:21:29;;;;;;;2.8;2.1;;;;;;;6.12;76.57715;929.2806;;;;
2023/12/05 11:23:57;;;;;;;4.3;1.9;;;;;;;6.11;76.57422;929.3027;;;;
2023/12/05 11:26:22;;;;;;;2.7;1.8;;;;;;;6.13;76.83691;929.2823;;;;
2023/12/05 11:28:47;;;;;;;2.2;1.9;;;;;;;6.14;76.85156;929.2311;;;;
2023/12/05 11:31:13;;;;;;;2.2;1.6;;;;;;;6.1;76.96777;929.0845;;;;
2023/12/05 11:33:38;;;;;;;2.4;1.7;;;;;;;6.13;77.11914;929.1756;;;;
2023/12/05 11:36:03;;;;;;;2.1;1.7;;;;;;;6.15;77.06738;929.183;;;;
2023/12/05 11:38:30;;;;;;;2.5;1.5;;;;;;;6.17;76.31348;929.1484;;;;
2023/12/05 11:40:56;;;;;;;1.8;1.6;;;;;;;6.07;76.71387;929.213;;;;
2023/12/05 11:43:22;;;;;;;2.4;1.5;;;;;;;6.02;77.47266;929.1262;;;;
2023/12/05 11:45:47;;;;;;;3.4;2.4;;;;;;;5.99;77.6709;929.1959;;;;
2023/12/05 11:48:16;;;;;;;4.2;3.2;;;;;;;5.94;78.375;929.2253;;;;
2023/12/05 11:50:41;;;;;;;9.2;5;;;;;;;5.89;78.81445;929.1675;;;;
2023/12/05 11:53:08;;;;;;;11.3;5.4;;;;;;;5.84;79.30566;929.1859;;;;
2023/12/05 11:55:33;;;;;;;18.2;8.6;;;;;;;5.78;79.7334;929.222;;;;
2023/12/05 11:58:00;;;;;;;50.9;21.7;;;;;;;5.73;79.79297;929.2048;;;;
2023/12/05 12:00:29;;;;;;;23.3;13.5;;;;;;;5.66;81.15527;929.1691;;;;
2023/12/05 12:02:55;;;;;;;14.1;9.2;;;;;;;5.57;82.19922;929.1677;;;;
2023/12/05 12:05:20;;;;;;;8.6;6.6;;;;;;;5.57;81.27344;929.1093;;;;
2023/12/05 12:07:48;;;;;;;9.1;6.1;;;;;;;5.54;81.97949;929.149;;;;
2023/12/05 12:10:18;;;;;;;10;5.9;;;;;;;5.55;81.99219;929.1816;;;;
2023/12/05 12:12:43;;;;;;;8.2;5.8;;;;;;;5.49;82.19434;929.2092;;;;
2023/12/05 12:15:15;;;;;;;8.2;5.9;;;;;;;5.44;82.6377;929.1777;;;;
2023/12/05 12:17:42;;;;;;;6.8;5.3;;;;;;;5.39;82.99902;929.2187;;;;
2023/12/05 12:20:16;;;;;;;73.5;30.8;;;;;;;5.34;84.71484;929.2092;;;;
2023/12/05 12:22:41;;;;;;;32.2;17.9;;;;;;;5.34;85.06445;929.2503;;;;
2023/12/05 12:25:09;;;;;;;15;9.9;;;;;;;5.29;85.32617;929.2251;;;;
2023/12/05 12:27:34;;;;;;;11.4;7.1;;;;;;;5.31;84.99316;929.1749;;;;
2023/12/05 12:30:07;;;;;;;10.6;7;;;;;;;5.21;85.0166;929.2296;;;;
2023/12/05 12:32:31;;;;;;;10;5.8;;;;;;;5.14;85.00391;929.285;;;;
2023/12/05 12:34:56;;;;;;;8.6;6;;;;;;;5.09;84.71094;929.2558;;;;
2023/12/05 12:37:26;;;;;;;9.2;6.3;;;;;;;5.06;84.88672;929.3098;;;;
2023/12/05 12:39:54;;;;;;;6.9;5;;;;;;;4.98;85.30957;929.2104;;;;
2023/12/05 12:42:25;;;;;;;5.5;4.3;;;;;;;4.96;85.41895;929.2978;;;;
2023/12/05 12:44:54;;;;;;;6.6;4.4;;;;;;;4.82;85.93066;929.2885;;;;
2023/12/05 12:47:22;;;;;;;6.8;4.3;;;;;;;4.81;85.88379;929.2244;;;;
2023/12/05 12:49:50;;;;;;;7.1;4.8;;;;;;;4.77;86.63086;929.303;;;;
2023/12/05 12:52:14;;;;;;;7.7;4.8;;;;;;;4.73;86.20508;929.2795;;;;
2023/12/05 12:54:43;;;;;;;7.9;4.8;;;;;;;4.71;86.62988;929.2997;;;;
2023/12/05 12:57:05;;;;;;;6.7;4.9;;;;;;;4.68;87.06152;929.293;;;;
2023/12/05 12:59:30;;;;;;;9.8;5.4;;;;;;;4.61;87.41992;929.3423;;;;
2023/12/05 13:01:55;;;;;;;13.8;8.4;;;;;;;4.58;87.74121;929.3455;;;;
2023/12/05 13:04:23;;;;;;;17.2;10.2;;;;;;;4.51;88.22363;929.371;;;;
2023/12/05 13:06:48;;;;;;;17.3;9.8;;;;;;;4.46;88.36816;929.3645;;;;
2023/12/05 13:09:17;;;;;;;10.5;6.6;;;;;;;4.44;89.21973;929.3381;;;;
2023/12/05 13:11:46;;;;;;;10.5;6.9;;;;;;;4.48;89.50879;929.3538;;;;
2023/12/05 13:14:11;;;;;;;8;5.7;;;;;;;4.41;89.18262;929.3653;;;;
2023/12/05 13:16:41;;;;;;;10.5;6.2;;;;;;;4.38;89.69238;929.3992;;;;
2023/12/05 13:19:06;;;;;;;10.2;6.3;;;;;;;4.47;90.26367;929.4066;;;;
2023/12/05 13:21:31;;;;;;;11.5;7;;;;;;;4.4;90.39258;929.4364;;;;
2023/12/05 13:24:02;;;;;;;9.5;6.7;;;;;;;4.33;90.19922;929.4983;;;;
2023/12/05 13:26:27;;;;;;;11.9;7.5;;;;;;;4.31;90.2041;929.4568;;;;
2023/12/05 13:28:56;;;;;;;20.8;11.8;;;;;;;4.35;90.65332;929.5869;;;;
2023/12/05 13:31:20;;;;;;;25.3;14.7;;;;;;;4.35;90.90039;929.616;;;;
2023/12/05 13:33:48;;;;;;;21.5;13.5;;;;;;;4.4;91.31543;929.635;;;;
2023/12/05 13:36:13;;;;;;;29.1;15.7;;;;;;;4.3;91.51953;929.608;;;;
2023/12/05 13:38:43;;;;;;;24.6;13.5;;;;;;;4.3;91.49707;929.6631;;;;
2023/12/05 13:41:08;;;;;;;23;12.7;;;;;;;4.27;91.69336;929.6508;;;;
2023/12/05 13:43:43;;;;;;;32.8;17.9;;;;;;;4.23;92.17871;929.8123;;;;
2023/12/05 13:46:14;;;;;;;50.3;24.5;;;;;;;4.24;91.73242;929.77;;;;
2023/12/05 13:48:39;;;;;;;192.2;71.7;;;;;;;4.3;91.46289;929.8594;;;;
2023/12/05 13:51:10;;;;;;;82.9;36.1;;;;;;;4.27;90.96191;929.7974;;;;
2023/12/05 13:53:39;;;;;;;28.7;14.3;;;;;;;4.35;90.9248;929.8887;;;;
2023/12/05 13:56:05;;;;;;;16.1;9.8;;;;;;;4.32;90.91699;929.9606;;;;
2023/12/05 13:58:30;;;;;;;10.8;7.3;;;;;;;4.32;90.84961;929.9835;;;;
2023/12/05 14:00:56;;;;;;;10.4;6.6;;;;;;;4.27;90.85156;929.9937;;;;
2023/12/05 14:03:21;;;;;;;11.1;6.5;;;;;;;4.25;91.2168;930.0066;;;;
2023/12/05 14:05:50;;;;;;;11.4;6.5;;;;;;;4.21;91.89355;930.0231;;;;
2023/12/05 14:08:15;;;;;;;8.9;5.6;;;;;;;4.17;92.07715;930.0259;;;;
2023/12/05 14:10:44;;;;;;;9.8;5.5;;;;;;;4.17;91.43555;930.0466;;;;
2023/12/05 14:13:13;;;;;;;6.5;4.9;;;;;;;4.19;92.01367;930.0822;;;;
2023/12/05 14:15:38;;;;;;;5.9;4.3;;;;;;;4.16;92.2666;930.084;;;;
2023/12/05 14:18:08;;;;;;;7.6;4.3;;;;;;;4.16;92.51367;930.0989;;;;
2023/12/05 14:20:33;;;;;;;7.4;4.9;;;;;;;4.06;92.88574;930.1152;;;;
2023/12/05 14:22:58;;;;;;;8.9;5.7;;;;;;;4.14;93.03809;930.164;;;;
2023/12/05 14:25:24;;;;;;;14.5;7.6;;;;;;;4.02;93.2041;930.1758;;;;
2023/12/05 14:27:54;;;;;;;18.8;10;;;;;;;4.06;93.15625;930.2003;;;;
2023/12/05 14:30:19;;;;;;;13.2;9.2;;;;;;;4.01;93.37109;930.1875;;;;
2023/12/05 14:32:50;;;;;;;15.6;9.5;;;;;;;3.98;93.56738;930.1433;;;;
2023/12/05 14:35:20;;;;;;;13.4;8.2;;;;;;;4.01;93.65234;930.1292;;;;
2023/12/05 14:37:45;;;;;;;14.2;7.8;;;;;;;3.97;94.31641;930.1153;;;;
2023/12/05 14:40:17;;;;;;;12.1;6.8;;;;;;;3.93;94.68848;930.1303;;;;